sensor_id;sensor_type;location;lat;lon;timestamp;pressure;altitude;pressure_sealevel;temperature;humidity
59106;BME280;44891;50.204;8.132;2023-12-20T00:03:05;98156.06;;;5.04;100.00
59106;BME280;44891;50.204;8.132;2023-12-20T00:07:08;98162.66;;;5.07;100.00
59106;BME280;44891;50.204;8.132;2023-12-20T00:11:10;98150.84;;;5.11;100.00
59106;BME280;44891;50.204;8.132;2023-12-20T00:15:12;98151.44;;;5.06;100.00
59106;BME280;44891;50.204;8.132;2023-12-20T00:19:14;98148.06;;;5.06;100.00
59106;BME280;44891;50.204;8.132;2023-12-20T00:23:17;98146.25;;;5.06;100.00
59106;BME280;44891;50.204;8.132;2023-12-20T00:27:19;98148.09;;;4.93;100.00
59106;BME280;44891;50.204;8.132;2023-12-20T00:31:20;98148.88;;;5.00;100.00
59106;BME280;44891;50.204;8.132;2023-12-20T00:35:22;98149.66;;;5.07;100.00
59106;BME280;44891;50.204;8.132;2023-12-20T00:39:25;98156.88;;;4.98;100.00
59106;BME280;44891;50.204;8.132;2023-12-20T00:43:27;98156.66;;;5.00;100.00
59106;BME280;44891;50.204;8.132;2023-12-20T00:47:29;98146.47;;;5.05;100.00
59106;BME280;44891;50.204;8.132;2023-12-20T00:51:31;98152.66;;;5.04;100.00
59106;BME280;44891;50.204;8.132;2023-12-20T00:55:34;98145.28;;;4.87;100.00
59106;BME280;44891;50.204;8.132;2023-12-20T00:59:36;98132.25;;;4.94;100.00
59106;BME280;44891;50.204;8.132;2023-12-20T01:03:38;98135.06;;;4.93;100.00
59106;BME280;44891;50.204;8.132;2023-12-20T01:07:40;98148.09;;;4.93;100.00
59106;BME280;44891;50.204;8.132;2023-12-20T01:11:43;98147.06;;;5.00;100.00
59106;BME280;44891;50.204;8.132;2023-12-20T01:15:45;98128.84;;;5.00;100.00
59106;BME280;44891;50.204;8.132;2023-12-20T01:19:47;98134.69;;;4.96;100.00
59106;BME280;44891;50.204;8.132;2023-12-20T01:23:49;98139.88;;;5.02;100.00
59106;BME280;44891;50.204;8.132;2023-12-20T01:27:52;98132.06;;;5.02;100.00
59106;BME280;44891;50.204;8.132;2023-12-20T01:31:54;98144.88;;;5.04;100.00
59106;BME280;44891;50.204;8.132;2023-12-20T01:35:56;98148.06;;;4.99;100.00
59106;BME280;44891;50.204;8.132;2023-12-20T01:39:58;98148.47;;;5.03;100.00
59106;BME280;44891;50.204;8.132;2023-12-20T01:44:01;98151.47;;;5.00;100.00
59106;BME280;44891;50.204;8.132;2023-12-20T01:48:03;98149.06;;;5.05;100.00
59106;BME280;44891;50.204;8.132;2023-12-20T01:52:06;98152.66;;;5.10;100.00
59106;BME280;44891;50.204;8.132;2023-12-20T01:56:08;98152.63;;;5.17;100.00
59106;BME280;44891;50.204;8.132;2023-12-20T02:00:13;98147.47;;;5.04;100.00
59106;BME280;44891;50.204;8.132;2023-12-20T02:04:15;98132.22;;;5.07;100.00
59106;BME280;44891;50.204;8.132;2023-12-20T02:08:17;98123.41;;;5.08;100.00
59106;BME280;44891;50.204;8.132;2023-12-20T02:12:19;98129.22;;;5.10;100.00
59106;BME280;44891;50.204;8.132;2023-12-20T02:16:22;98125.03;;;5.09;100.00
59106;BME280;44891;50.204;8.132;2023-12-20T02:20:24;98129.44;;;5.09;100.00
59106;BME280;44891;50.204;8.132;2023-12-20T02:24:27;98136.84;;;5.05;100.00
59106;BME280;44891;50.204;8.132;2023-12-20T02:28:29;98136.66;;;5.00;100.00
59106;BME280;44891;50.204;8.132;2023-12-20T02:32:31;98142.06;;;4.99;100.00
59106;BME280;44891;50.204;8.132;2023-12-20T02:36:33;98142.28;;;4.97;100.00
59106;BME280;44891;50.204;8.132;2023-12-20T02:40:36;98147.66;;;5.09;100.00
59106;BME280;44891;50.204;8.132;2023-12-20T02:44:38;98145.63;;;5.17;100.00
59106;BME280;44891;50.204;8.132;2023-12-20T02:48:40;98151.81;;;5.23;100.00
59106;BME280;44891;50.204;8.132;2023-12-20T02:52:44;98156.03;;;5.17;100.00
59106;BME280;44891;50.204;8.132;2023-12-20T02:56:47;98153.22;;;5.26;100.00
59106;BME280;44891;50.204;8.132;2023-12-20T03:00:49;98154.63;;;5.22;100.00
59106;BME280;44891;50.204;8.132;2023-12-20T03:04:51;98168.44;;;5.29;100.00
59106;BME280;44891;50.204;8.132;2023-12-20T03:08:52;98169.41;;;5.28;100.00
59106;BME280;44891;50.204;8.132;2023-12-20T03:12:56;98169.63;;;5.26;100.00
59106;BME280;44891;50.204;8.132;2023-12-20T03:16:57;98174.84;;;5.19;100.00
59106;BME280;44891;50.204;8.132;2023-12-20T03:20:59;98184.06;;;5.29;100.00
59106;BME280;44891;50.204;8.132;2023-12-20T03:25:01;98194.03;;;5.32;100.00
59106;BME280;44891;50.204;8.132;2023-12-20T03:29:04;98190.66;;;5.25;100.00
59106;BME280;44891;50.204;8.132;2023-12-20T03:33:06;98192.44;;;5.37;100.00
59106;BME280;44891;50.204;8.132;2023-12-20T03:37:08;98199.84;;;5.34;100.00
59106;BME280;44891;50.204;8.132;2023-12-20T03:41:10;98198.44;;;5.38;100.00
59106;BME280;44891;50.204;8.132;2023-12-20T03:45:14;98206.47;;;5.36;100.00
59106;BME280;44891;50.204;8.132;2023-12-20T03:49:15;98207.06;;;5.38;100.00
59106;BME280;44891;50.204;8.132;2023-12-20T03:53:17;98197.44;;;5.39;100.00
59106;BME280;44891;50.204;8.132;2023-12-20T03:57:19;98207.66;;;5.34;100.00
59106;BME280;44891;50.204;8.132;2023-12-20T04:01:22;98207.44;;;5.42;100.00
59106;BME280;44891;50.204;8.132;2023-12-20T04:05:24;98212.84;;;5.40;100.00
59106;BME280;44891;50.204;8.132;2023-12-20T04:09:26;98219.50;;;5.30;100.00
59106;BME280;44891;50.204;8.132;2023-12-20T04:13:28;98231.09;;;5.34;100.00
59106;BME280;44891;50.204;8.132;2023-12-20T04:17:31;98224.31;;;5.19;100.00
59106;BME280;44891;50.204;8.132;2023-12-20T04:21:33;98216.28;;;5.21;100.00
59106;BME280;44891;50.204;8.132;2023-12-20T04:25:34;98225.13;;;5.13;100.00
59106;BME280;44891;50.204;8.132;2023-12-20T04:29:37;98242.75;;;4.98;100.00
59106;BME280;44891;50.204;8.132;2023-12-20T04:33:40;98237.56;;;4.78;100.00
59106;BME280;44891;50.204;8.132;2023-12-20T04:37:42;98237.94;;;4.69;100.00
59106;BME280;44891;50.204;8.132;2023-12-20T04:41:43;98240.94;;;4.59;100.00
59106;BME280;44891;50.204;8.132;2023-12-20T04:45:45;98248.31;;;4.49;100.00
59106;BME280;44891;50.204;8.132;2023-12-20T04:49:48;98253.34;;;4.44;100.00
59106;BME280;44891;50.204;8.132;2023-12-20T04:53:50;98257.13;;;4.48;100.00
59106;BME280;44891;50.204;8.132;2023-12-20T04:57:52;98258.91;;;4.41;100.00
59106;BME280;44891;50.204;8.132;2023-12-20T05:01:55;98256.34;;;4.54;100.00
59106;BME280;44891;50.204;8.132;2023-12-20T05:05:59;98251.91;;;4.41;100.00
59106;BME280;44891;50.204;8.132;2023-12-20T05:10:02;98240.34;;;4.44;100.00
59106;BME280;44891;50.204;8.132;2023-12-20T05:14:04;98240.75;;;4.54;100.00
59106;BME280;44891;50.204;8.132;2023-12-20T05:18:06;98247.94;;;4.52;100.00
59106;BME280;44891;50.204;8.132;2023-12-20T05:22:09;98245.31;;;4.32;100.00
59106;BME280;44891;50.204;8.132;2023-12-20T05:26:11;98243.13;;;4.49;100.00
59106;BME280;44891;50.204;8.132;2023-12-20T05:30:13;98252.72;;;4.48;100.00
59106;BME280;44891;50.204;8.132;2023-12-20T05:34:15;98248.31;;;4.42;100.00
59106;BME280;44891;50.204;8.132;2023-12-20T05:38:18;98256.72;;;4.38;100.00
59106;BME280;44891;50.204;8.132;2023-12-20T05:42:20;98255.91;;;4.30;100.00
59106;BME280;44891;50.204;8.132;2023-12-20T05:46:22;98245.06;;;4.20;100.00
59106;BME280;44891;50.204;8.132;2023-12-20T05:50:24;98252.25;;;4.05;100.00
59106;BME280;44891;50.204;8.132;2023-12-20T05:54:27;98250.75;;;3.82;100.00
59106;BME280;44891;50.204;8.132;2023-12-20T05:58:28;98240.31;;;3.76;100.00
59106;BME280;44891;50.204;8.132;2023-12-20T06:02:30;98264.97;;;3.93;100.00
59106;BME280;44891;50.204;8.132;2023-12-20T06:06:33;98266.97;;;3.91;100.00
59106;BME280;44891;50.204;8.132;2023-12-20T06:10:36;98264.22;;;3.99;100.00
59106;BME280;44891;50.204;8.132;2023-12-20T06:14:38;98264.00;;;4.01;100.00
59106;BME280;44891;50.204;8.132;2023-12-20T06:18:40;98259.13;;;3.43;100.00
59106;BME280;44891;50.204;8.132;2023-12-20T06:22:41;98262.16;;;3.47;100.00
59106;BME280;44891;50.204;8.132;2023-12-20T06:26:45;98247.97;;;3.15;100.00
59106;BME280;44891;50.204;8.132;2023-12-20T06:30:46;98272.31;;;2.86;100.00
59106;BME280;44891;50.204;8.132;2023-12-20T06:34:50;98276.81;;;2.98;100.00
59106;BME280;44891;50.204;8.132;2023-12-20T06:38:51;98275.69;;;3.08;100.00
59106;BME280;44891;50.204;8.132;2023-12-20T06:42:55;98276.25;;;3.31;100.00
59106;BME280;44891;50.204;8.132;2023-12-20T06:46:56;98269.31;;;3.38;100.00
59106;BME280;44891;50.204;8.132;2023-12-20T06:50:59;98270.72;;;3.41;100.00
59106;BME280;44891;50.204;8.132;2023-12-20T06:55:02;98268.31;;;3.39;100.00
59106;BME280;44891;50.204;8.132;2023-12-20T06:59:06;98279.13;;;3.49;100.00
59106;BME280;44891;50.204;8.132;2023-12-20T07:03:08;98268.34;;;3.46;100.00
59106;BME280;44891;50.204;8.132;2023-12-20T07:07:10;98270.56;;;3.49;100.00
59106;BME280;44891;50.204;8.132;2023-12-20T07:11:12;98277.53;;;3.83;100.00
59106;BME280;44891;50.204;8.132;2023-12-20T07:15:15;98292.50;;;3.81;100.00
59106;BME280;44891;50.204;8.132;2023-12-20T07:19:17;98289.56;;;3.91;100.00
59106;BME280;44891;50.204;8.132;2023-12-20T07:23:19;98283.97;;;3.94;100.00
59106;BME280;44891;50.204;8.132;2023-12-20T07:27:21;98286.03;;;4.05;100.00
59106;BME280;44891;50.204;8.132;2023-12-20T07:31:25;98289.00;;;4.08;100.00
59106;BME280;44891;50.204;8.132;2023-12-20T07:35:26;98288.22;;;4.08;100.00
59106;BME280;44891;50.204;8.132;2023-12-20T07:39:28;98287.66;;;4.19;100.00
59106;BME280;44891;50.204;8.132;2023-12-20T07:43:30;98312.69;;;4.27;100.00
59106;BME280;44891;50.204;8.132;2023-12-20T07:47:33;98318.44;;;4.22;100.00
59106;BME280;44891;50.204;8.132;2023-12-20T07:51:35;98323.28;;;4.25;100.00
59106;BME280;44891;50.204;8.132;2023-12-20T07:55:37;98319.50;;;4.34;100.00
59106;BME280;44891;50.204;8.132;2023-12-20T07:59:38;98321.06;;;4.22;100.00
59106;BME280;44891;50.204;8.132;2023-12-20T08:03:42;98322.31;;;4.33;100.00
59106;BME280;44891;50.204;8.132;2023-12-20T08:07:43;98317.09;;;4.33;100.00
59106;BME280;44891;50.204;8.132;2023-12-20T08:11:45;98324.69;;;4.28;100.00
59106;BME280;44891;50.204;8.132;2023-12-20T08:15:47;98329.28;;;4.26;100.00
59106;BME280;44891;50.204;8.132;2023-12-20T08:19:50;98333.13;;;4.36;100.00
59106;BME280;44891;50.204;8.132;2023-12-20T08:23:52;98326.94;;;4.38;100.00
59106;BME280;44891;50.204;8.132;2023-12-20T08:27:54;98331.16;;;4.45;100.00
59106;BME280;44891;50.204;8.132;2023-12-20T08:31:56;98336.56;;;4.50;100.00
59106;BME280;44891;50.204;8.132;2023-12-20T08:35:59;98348.09;;;4.34;100.00
59106;BME280;44891;50.204;8.132;2023-12-20T08:40:06;98349.59;;;4.57;100.00
59106;BME280;44891;50.204;8.132;2023-12-20T08:44:08;98343.75;;;4.55;100.00
59106;BME280;44891;50.204;8.132;2023-12-20T08:48:09;98347.81;;;4.71;100.00
59106;BME280;44891;50.204;8.132;2023-12-20T08:52:13;98338.81;;;4.73;100.00
59106;BME280;44891;50.204;8.132;2023-12-20T08:56:15;98350.19;;;4.66;100.00
59106;BME280;44891;50.204;8.132;2023-12-20T09:00:18;98346.00;;;4.71;100.00
59106;BME280;44891;50.204;8.132;2023-12-20T09:04:21;98342.84;;;4.82;100.00
59106;BME280;44891;50.204;8.132;2023-12-20T09:08:24;98343.84;;;4.88;100.00
59106;BME280;44891;50.204;8.132;2023-12-20T09:12:26;98334.06;;;4.97;100.00
59106;BME280;44891;50.204;8.132;2023-12-20T09:16:28;98338.25;;;5.04;100.00
59106;BME280;44891;50.204;8.132;2023-12-20T09:20:30;98333.63;;;4.93;100.00
59106;BME280;44891;50.204;8.132;2023-12-20T09:24:33;98336.66;;;5.10;100.00
59106;BME280;44891;50.204;8.132;2023-12-20T09:28:35;98344.06;;;5.19;99.96
59106;BME280;44891;50.204;8.132;2023-12-20T09:32:37;98344.88;;;5.20;98.93
59106;BME280;44891;50.204;8.132;2023-12-20T09:36:39;98343.06;;;5.27;99.26
59106;BME280;44891;50.204;8.132;2023-12-20T09:40:48;98343.06;;;5.21;99.92
59106;BME280;44891;50.204;8.132;2023-12-20T09:44:51;98344.03;;;5.66;97.08
59106;BME280;44891;50.204;8.132;2023-12-20T09:48:52;98348.88;;;5.56;97.35
59106;BME280;44891;50.204;8.132;2023-12-20T09:52:54;98357.88;;;5.46;95.40
59106;BME280;44891;50.204;8.132;2023-12-20T09:57:01;98358.50;;;5.49;96.95
59106;BME280;44891;50.204;8.132;2023-12-20T10:01:03;98354.47;;;5.46;98.06
59106;BME280;44891;50.204;8.132;2023-12-20T10:05:06;98354.47;;;5.46;97.98
59106;BME280;44891;50.204;8.132;2023-12-20T10:09:10;98348.47;;;5.59;97.59
59106;BME280;44891;50.204;8.132;2023-12-20T10:13:13;98349.25;;;5.66;94.94
59106;BME280;44891;50.204;8.132;2023-12-20T10:17:15;98338.41;;;5.76;95.36
59106;BME280;44891;50.204;8.132;2023-12-20T10:21:17;98339.78;;;6.05;93.31
59106;BME280;44891;50.204;8.132;2023-12-20T10:25:19;98324.59;;;9.40;80.12
59106;BME280;44891;50.204;8.132;2023-12-20T10:29:22;98319.81;;;13.33;64.38
59106;BME280;44891;50.204;8.132;2023-12-20T10:33:25;98308.88;;;13.20;58.92
59106;BME280;44891;50.204;8.132;2023-12-20T10:37:27;98310.69;;;12.82;63.68
59106;BME280;44891;50.204;8.132;2023-12-20T10:41:29;98298.31;;;14.92;56.76
59106;BME280;44891;50.204;8.132;2023-12-20T10:45:33;98301.19;;;14.81;56.75
59106;BME280;44891;50.204;8.132;2023-12-20T10:49:36;98302.59;;;12.94;57.74
59106;BME280;44891;50.204;8.132;2023-12-20T10:53:38;98315.28;;;13.61;58.62
59106;BME280;44891;50.204;8.132;2023-12-20T10:57:41;98309.44;;;12.90;58.77
59106;BME280;44891;50.204;8.132;2023-12-20T11:01:45;98291.78;;;9.72;69.73
59106;BME280;44891;50.204;8.132;2023-12-20T11:05:49;98298.66;;;8.25;76.81
59106;BME280;44891;50.204;8.132;2023-12-20T11:09:55;98291.56;;;8.13;77.59
59106;BME280;44891;50.204;8.132;2023-12-20T11:14:00;98289.47;;;8.04;77.75
59106;BME280;44891;50.204;8.132;2023-12-20T11:18:05;98277.00;;;8.17;77.73
59106;BME280;44891;50.204;8.132;2023-12-20T11:22:07;98282.66;;;9.28;74.38
59106;BME280;44891;50.204;8.132;2023-12-20T11:26:11;98280.16;;;8.98;73.19
59106;BME280;44891;50.204;8.132;2023-12-20T11:30:17;98298.03;;;7.56;79.45
59106;BME280;44891;50.204;8.132;2023-12-20T11:34:20;98283.16;;;6.88;81.69
59106;BME280;44891;50.204;8.132;2023-12-20T11:38:22;98285.13;;;6.61;83.71
59106;BME280;44891;50.204;8.132;2023-12-20T11:42:24;98271.78;;;6.76;82.66
59106;BME280;44891;50.204;8.132;2023-12-20T11:46:26;98263.31;;;7.05;79.58
59106;BME280;44891;50.204;8.132;2023-12-20T11:50:29;98261.38;;;7.19;81.80
59106;BME280;44891;50.204;8.132;2023-12-20T11:54:31;98260.97;;;13.23;59.75
59106;BME280;44891;50.204;8.132;2023-12-20T11:58:33;98252.38;;;15.89;53.32
59106;BME280;44891;50.204;8.132;2023-12-20T12:02:35;98246.97;;;14.48;52.81
59106;BME280;44891;50.204;8.132;2023-12-20T12:06:39;98251.09;;;12.76;58.16
59106;BME280;44891;50.204;8.132;2023-12-20T12:10:40;98240.78;;;12.42;59.74
59106;BME280;44891;50.204;8.132;2023-12-20T12:14:42;98246.75;;;13.76;55.18
59106;BME280;44891;50.204;8.132;2023-12-20T12:18:45;98255.16;;;10.46;66.24
59106;BME280;44891;50.204;8.132;2023-12-20T12:22:57;98254.59;;;8.82;72.57
59106;BME280;44891;50.204;8.132;2023-12-20T12:26:59;98259.56;;;8.00;75.70
59106;BME280;44891;50.204;8.132;2023-12-20T12:31:01;98255.66;;;7.11;80.43
59106;BME280;44891;50.204;8.132;2023-12-20T12:35:03;98244.59;;;7.33;82.62
59106;BME280;44891;50.204;8.132;2023-12-20T12:39:08;98236.31;;;7.55;80.64
59106;BME280;44891;50.204;8.132;2023-12-20T12:43:10;98214.25;;;7.51;82.38
59106;BME280;44891;50.204;8.132;2023-12-20T12:47:13;98214.47;;;6.88;84.73
59106;BME280;44891;50.204;8.132;2023-12-20T12:51:15;98208.41;;;6.94;85.25
59106;BME280;44891;50.204;8.132;2023-12-20T12:55:18;98204.53;;;7.21;84.48
59106;BME280;44891;50.204;8.132;2023-12-20T12:59:19;98193.75;;;6.68;84.22
59106;BME280;44891;50.204;8.132;2023-12-20T13:03:21;98187.19;;;7.45;82.20
59106;BME280;44891;50.204;8.132;2023-12-20T13:07:23;98186.19;;;7.28;82.75
59106;BME280;44891;50.204;8.132;2023-12-20T13:11:27;98182.38;;;7.24;84.46
59106;BME280;44891;50.204;8.132;2023-12-20T13:15:28;98166.94;;;7.22;83.10
59106;BME280;44891;50.204;8.132;2023-12-20T13:19:31;98167.22;;;6.71;85.51
59106;BME280;44891;50.204;8.132;2023-12-20T13:23:32;98150.38;;;6.67;87.47
59106;BME280;44891;50.204;8.132;2023-12-20T13:27:36;98147.03;;;6.60;88.92
59106;BME280;44891;50.204;8.132;2023-12-20T13:31:38;98147.91;;;7.52;84.46
59106;BME280;44891;50.204;8.132;2023-12-20T13:35:40;98144.22;;;7.41;84.96
59106;BME280;44891;50.204;8.132;2023-12-20T13:39:42;98143.69;;;6.52;87.23
59106;BME280;44891;50.204;8.132;2023-12-20T13:43:45;98140.41;;;6.39;88.93
59106;BME280;44891;50.204;8.132;2023-12-20T13:47:47;98136.56;;;6.41;89.42
59106;BME280;44891;50.204;8.132;2023-12-20T13:51:50;98143.50;;;6.54;89.40
59106;BME280;44891;50.204;8.132;2023-12-20T13:55:51;98145.66;;;6.57;87.85
59106;BME280;44891;50.204;8.132;2023-12-20T13:59:55;98133.97;;;6.41;88.67
59106;BME280;44891;50.204;8.132;2023-12-20T14:03:57;98145.03;;;6.37;89.46
59106;BME280;44891;50.204;8.132;2023-12-20T14:08:00;98121.66;;;6.48;89.05
59106;BME280;44891;50.204;8.132;2023-12-20T14:12:02;98135.84;;;6.34;89.24
59106;BME280;44891;50.204;8.132;2023-12-20T14:16:06;98136.91;;;6.20;89.52
59106;BME280;44891;50.204;8.132;2023-12-20T14:20:08;98122.81;;;6.03;90.20
59106;BME280;44891;50.204;8.132;2023-12-20T14:24:10;98117.50;;;6.16;89.72
59106;BME280;44891;50.204;8.132;2023-12-20T14:28:12;98123.19;;;6.06;90.19
59106;BME280;44891;50.204;8.132;2023-12-20T14:32:16;98140.44;;;6.00;90.59
59106;BME280;44891;50.204;8.132;2023-12-20T14:36:18;98142.06;;;6.02;90.96
59106;BME280;44891;50.204;8.132;2023-12-20T14:40:20;98125.91;;;5.80;91.57
59106;BME280;44891;50.204;8.132;2023-12-20T14:44:22;98119.28;;;5.84;91.83
59106;BME280;44891;50.204;8.132;2023-12-20T14:48:25;98107.13;;;5.71;92.19
59106;BME280;44891;50.204;8.132;2023-12-20T14:52:28;98119.63;;;5.62;93.56
59106;BME280;44891;50.204;8.132;2023-12-20T14:56:30;98107.06;;;5.46;95.00
59106;BME280;44891;50.204;8.132;2023-12-20T15:00:32;98109.31;;;5.36;95.69
59106;BME280;44891;50.204;8.132;2023-12-20T15:04:35;98110.13;;;5.36;95.88
59106;BME280;44891;50.204;8.132;2023-12-20T15:08:37;98115.66;;;5.46;95.54
59106;BME280;44891;50.204;8.132;2023-12-20T15:12:39;98113.72;;;5.35;96.91
59106;BME280;44891;50.204;8.132;2023-12-20T15:16:41;98123.31;;;5.41;96.53
59106;BME280;44891;50.204;8.132;2023-12-20T15:20:44;98122.91;;;5.44;96.41
59106;BME280;44891;50.204;8.132;2023-12-20T15:24:48;98107.50;;;5.36;96.94
59106;BME280;44891;50.204;8.132;2023-12-20T15:28:52;98116.31;;;5.42;96.69
59106;BME280;44891;50.204;8.132;2023-12-20T15:32:54;98114.88;;;5.46;96.22
59106;BME280;44891;50.204;8.132;2023-12-20T15:36:58;98113.50;;;5.37;96.89
59106;BME280;44891;50.204;8.132;2023-12-20T15:41:00;98105.09;;;5.41;97.03
59106;BME280;44891;50.204;8.132;2023-12-20T15:45:04;98100.47;;;5.43;97.04
59106;BME280;44891;50.204;8.132;2023-12-20T15:49:06;98102.25;;;5.50;96.76
59106;BME280;44891;50.204;8.132;2023-12-20T15:53:09;98109.63;;;5.53;96.66
59106;BME280;44891;50.204;8.132;2023-12-20T15:57:11;98101.41;;;5.56;97.06
59106;BME280;44891;50.204;8.132;2023-12-20T16:01:16;98103.06;;;5.43;97.94
59106;BME280;44891;50.204;8.132;2023-12-20T16:05:17;98109.66;;;5.46;97.59
59106;BME280;44891;50.204;8.132;2023-12-20T16:09:21;98099.19;;;5.59;96.60
59106;BME280;44891;50.204;8.132;2023-12-20T16:13:22;98106.19;;;5.59;96.91
59106;BME280;44891;50.204;8.132;2023-12-20T16:17:24;98113.44;;;5.57;97.36
59106;BME280;44891;50.204;8.132;2023-12-20T16:21:26;98111.25;;;5.47;99.01
59106;BME280;44891;50.204;8.132;2023-12-20T16:25:29;98107.03;;;5.53;97.69
59106;BME280;44891;50.204;8.132;2023-12-20T16:29:31;98110.38;;;5.60;97.41
59106;BME280;44891;50.204;8.132;2023-12-20T16:33:33;98109.59;;;5.59;97.62
59106;BME280;44891;50.204;8.132;2023-12-20T16:37:35;98107.75;;;5.66;97.77
59106;BME280;44891;50.204;8.132;2023-12-20T16:41:39;98105.59;;;5.57;98.17
59106;BME280;44891;50.204;8.132;2023-12-20T16:45:41;98105.78;;;5.62;97.92
59106;BME280;44891;50.204;8.132;2023-12-20T16:49:43;98092.69;;;5.75;96.90
59106;BME280;44891;50.204;8.132;2023-12-20T16:53:44;98095.13;;;5.70;97.58
59106;BME280;44891;50.204;8.132;2023-12-20T16:57:48;98086.72;;;5.68;97.71
59106;BME280;44891;50.204;8.132;2023-12-20T17:01:49;98086.75;;;5.61;98.02
59106;BME280;44891;50.204;8.132;2023-12-20T17:05:52;98096.75;;;5.64;97.59
59106;BME280;44891;50.204;8.132;2023-12-20T17:09:54;98082.88;;;5.70;97.77
59106;BME280;44891;50.204;8.132;2023-12-20T17:13:59;98088.31;;;5.69;97.97
59106;BME280;44891;50.204;8.132;2023-12-20T17:18:01;98085.06;;;5.73;97.45
59106;BME280;44891;50.204;8.132;2023-12-20T17:22:06;98092.34;;;5.65;98.00
59106;BME280;44891;50.204;8.132;2023-12-20T17:26:09;98091.25;;;5.79;96.59
59106;BME280;44891;50.204;8.132;2023-12-20T17:30:12;98090.22;;;5.80;96.71
59106;BME280;44891;50.204;8.132;2023-12-20T17:34:14;98095.44;;;5.80;97.08
59106;BME280;44891;50.204;8.132;2023-12-20T17:38:17;98087.81;;;5.85;96.63
59106;BME280;44891;50.204;8.132;2023-12-20T17:42:18;98091.81;;;5.88;96.57
59106;BME280;44891;50.204;8.132;2023-12-20T17:46:22;98094.59;;;5.93;96.77
59106;BME280;44891;50.204;8.132;2023-12-20T17:50:23;98087.00;;;5.85;97.42
59106;BME280;44891;50.204;8.132;2023-12-20T17:54:25;98088.38;;;5.87;97.32
59106;BME280;44891;50.204;8.132;2023-12-20T17:58:29;98097.81;;;5.88;97.93
59106;BME280;44891;50.204;8.132;2023-12-20T18:02:33;98097.47;;;5.78;100.00
59106;BME280;44891;50.204;8.132;2023-12-20T18:06:34;98085.84;;;5.74;100.00
59106;BME280;44891;50.204;8.132;2023-12-20T18:10:36;98080.88;;;5.72;100.00
59106;BME280;44891;50.204;8.132;2023-12-20T18:14:38;98070.22;;;5.74;100.00
59106;BME280;44891;50.204;8.132;2023-12-20T18:18:41;98075.88;;;5.71;100.00
59106;BME280;44891;50.204;8.132;2023-12-20T18:22:43;98057.84;;;5.69;100.00
59106;BME280;44891;50.204;8.132;2023-12-20T18:26:45;98053.56;;;5.82;100.00
59106;BME280;44891;50.204;8.132;2023-12-20T18:30:47;98063.41;;;5.73;100.00
59106;BME280;44891;50.204;8.132;2023-12-20T18:34:50;98065.50;;;5.96;99.89
59106;BME280;44891;50.204;8.132;2023-12-20T18:38:52;98054.50;;;5.87;100.00
59106;BME280;44891;50.204;8.132;2023-12-20T18:42:53;98047.28;;;5.89;99.78
59106;BME280;44891;50.204;8.132;2023-12-20T18:46:57;98029.03;;;5.89;100.00
59106;BME280;44891;50.204;8.132;2023-12-20T18:51:00;98036.84;;;5.96;99.58
59106;BME280;44891;50.204;8.132;2023-12-20T18:55:02;98044.66;;;5.96;100.00
59106;BME280;44891;50.204;8.132;2023-12-20T18:59:05;98046.94;;;6.11;99.00
59106;BME280;44891;50.204;8.132;2023-12-20T19:03:07;98042.16;;;6.08;99.35
59106;BME280;44891;50.204;8.132;2023-12-20T19:07:10;98035.34;;;6.07;99.54
59106;BME280;44891;50.204;8.132;2023-12-20T19:11:12;98027.31;;;6.08;100.00
59106;BME280;44891;50.204;8.132;2023-12-20T19:15:14;98033.00;;;5.98;100.00
59106;BME280;44891;50.204;8.132;2023-12-20T19:19:16;98030.56;;;6.04;100.00
59106;BME280;44891;50.204;8.132;2023-12-20T19:23:19;98018.75;;;6.01;100.00
59106;BME280;44891;50.204;8.132;2023-12-20T19:27:21;98017.38;;;5.98;100.00
59106;BME280;44891;50.204;8.132;2023-12-20T19:31:24;98019.44;;;6.15;100.00
59106;BME280;44891;50.204;8.132;2023-12-20T19:35:26;98009.38;;;6.18;100.00
59106;BME280;44891;50.204;8.132;2023-12-20T19:39:29;98007.41;;;6.14;100.00
59106;BME280;44891;50.204;8.132;2023-12-20T19:43:31;98006.81;;;6.12;100.00
59106;BME280;44891;50.204;8.132;2023-12-20T19:47:33;98003.31;;;5.99;100.00
59106;BME280;44891;50.204;8.132;2023-12-20T19:51:35;97995.38;;;5.94;100.00
59106;BME280;44891;50.204;8.132;2023-12-20T19:55:38;97981.13;;;5.90;100.00
59106;BME280;44891;50.204;8.132;2023-12-20T19:59:40;97981.88;;;5.97;100.00
59106;BME280;44891;50.204;8.132;2023-12-20T20:03:42;97981.09;;;5.97;100.00
59106;BME280;44891;50.204;8.132;2023-12-20T20:07:44;97985.44;;;6.03;100.00
59106;BME280;44891;50.204;8.132;2023-12-20T20:11:47;97978.44;;;6.04;100.00
59106;BME280;44891;50.204;8.132;2023-12-20T20:15:49;97953.72;;;6.06;100.00
59106;BME280;44891;50.204;8.132;2023-12-20T20:19:51;97951.91;;;6.07;100.00
59106;BME280;44891;50.204;8.132;2023-12-20T20:23:53;97943.97;;;6.02;100.00
59106;BME280;44891;50.204;8.132;2023-12-20T20:27:56;97937.06;;;6.07;100.00
59106;BME280;44891;50.204;8.132;2023-12-20T20:31:58;97937.63;;;6.16;100.00
59106;BME280;44891;50.204;8.132;2023-12-20T20:36:00;97914.56;;;6.13;100.00
59106;BME280;44891;50.204;8.132;2023-12-20T20:40:05;97911.59;;;6.09;100.00
59106;BME280;44891;50.204;8.132;2023-12-20T20:44:08;97920.78;;;6.12;100.00
59106;BME280;44891;50.204;8.132;2023-12-20T20:48:10;97915.50;;;6.18;100.00
59106;BME280;44891;50.204;8.132;2023-12-20T20:52:14;97899.44;;;6.21;100.00
59106;BME280;44891;50.204;8.132;2023-12-20T20:56:16;97891.97;;;6.25;100.00
59106;BME280;44891;50.204;8.132;2023-12-20T21:00:19;97884.53;;;6.29;100.00
59106;BME280;44891;50.204;8.132;2023-12-20T21:04:21;97881.53;;;6.25;100.00
59106;BME280;44891;50.204;8.132;2023-12-20T21:08:23;97885.31;;;6.29;100.00
59106;BME280;44891;50.204;8.132;2023-12-20T21:12:25;97873.41;;;6.33;100.00
59106;BME280;44891;50.204;8.132;2023-12-20T21:16:30;97867.22;;;6.34;100.00
59106;BME280;44891;50.204;8.132;2023-12-20T21:20:31;97867.00;;;6.36;100.00
59106;BME280;44891;50.204;8.132;2023-12-20T21:24:33;97856.31;;;6.37;100.00
59106;BME280;44891;50.204;8.132;2023-12-20T21:28:35;97850.47;;;6.42;100.00
59106;BME280;44891;50.204;8.132;2023-12-20T21:32:39;97852.06;;;6.43;100.00